WetterOnline ( https://www.wetteronline.at )

Wetter aktuell Freiburg

Aktuelles Wetter: Freiburg/Flugplatz (236m)

6-stündlich | Neueste Meldungen
Ortszeit Temperatur Wetter
So, 18.08. 14:00 30.5° C wolkig
So, 18.08. 8:00 22.0° C wolkenlos
So, 18.08. 2:00 17.0° C bedeckt
Sa, 17.08. 20:00 22.7° C leichter Regen
Sa, 17.08. 14:00 22.7° C Regen
Sa, 17.08. 8:00 20.5° C bedeckt
Sa, 17.08. 2:00 16.1° C bedeckt
Fr, 16.08. 20:00 23.1° C leicht bewölkt
Ortszeit Temperatur Wetter
So, 18.08. 15:00 31.1° C leicht bewölkt
So, 18.08. 14:40 31.0° C leicht bewölkt
So, 18.08. 14:30 30.3° C leicht bewölkt
So, 18.08. 14:20 30.3° C leicht bewölkt
So, 18.08. 14:10 30.5° C fast wolkenlos
So, 18.08. 14:00 30.5° C wolkig
So, 18.08. 13:50 30.5° C wolkig
So, 18.08. 13:30 29.8° C wolkenlos
So, 18.08. 13:00 29.7° C wolkenlos
So, 18.08. 12:30 29.0° C wolkenlos
So, 18.08. 12:00 28.7° C wolkenlos
Ortszeit Relative Feuchte Sichtweite
So, 18.08. 14:00 37% 27 km
So, 18.08. 8:00 69% 30 km
So, 18.08. 2:00 92% 29 km
Sa, 17.08. 20:00 61% 40 km
Sa, 17.08. 14:00 55% 35 km
Sa, 17.08. 8:00 58% 60 km
Sa, 17.08. 2:00 79% 45 km
Fr, 16.08. 20:00 42% 70 km
Ortszeit Relative Feuchte Sichtweite
So, 18.08. 15:00 37% 27 km
So, 18.08. 14:40 37% -
So, 18.08. 14:30 37% 18 km
So, 18.08. 14:20 37% -
So, 18.08. 14:10 36% -
So, 18.08. 14:00 37% 27 km
So, 18.08. 13:50 37% -
So, 18.08. 13:30 36% 29 km
So, 18.08. 13:00 38% 25 km
So, 18.08. 12:30 36% 35 km
So, 18.08. 12:00 39% 27 km
Ortszeit Niederschlagsmenge Niederschlagsart
So, 18.08. 14:00 0.0 l/m2 in 6 Std. -
So, 18.08. 8:00 0.1 l/m2 in 12 Std. -
So, 18.08. 2:00 0.1 l/m2 in 6 Std. Regen
Sa, 17.08. 20:00 0.1 l/m2 in 12 Std. Regen
Sa, 17.08. 14:00 0.1 l/m2 in 6 Std. Regen
Sa, 17.08. 8:00 0.0 l/m2 in 12 Std. -
Sa, 17.08. 2:00 0.0 l/m2 in 6 Std. -
Fr, 16.08. 20:00 0.0 l/m2 in 12 Std. -
Ortszeit Niederschlagsmenge Niederschlagsart
So, 18.08. 15:00 0.0 l/m2 in 1 Std. -
So, 18.08. 14:40 keine Meldung -
So, 18.08. 14:30 0.0 l/m2 in 1 Std. -
So, 18.08. 14:20 keine Meldung -
So, 18.08. 14:10 keine Meldung -
So, 18.08. 14:00 0.0 l/m2 in 1 Std. -
So, 18.08. 13:50 keine Meldung -
So, 18.08. 13:30 0.0 l/m2 in 1 Std. -
So, 18.08. 13:00 0.0 l/m2 in 1 Std. -
So, 18.08. 12:30 0.0 l/m2 in 1 Std. -
So, 18.08. 12:00 0.0 l/m2 in 1 Std. -
Ortszeit Stärke Spitze Richtung
km/h Bft. km/h Grad Sektor
So, 18.08. 14:00 18 3 47 260° W
So, 18.08. 8:00 9 2 17 180° S
So, 18.08. 2:00 4 1 14 200° S
Sa, 17.08. 20:00 6 1 33 130° SO
Sa, 17.08. 14:00 14 3 40 210° SW
Sa, 17.08. 8:00 11 2 24 190° S
Sa, 17.08. 2:00 4 1 22 120° SO
Fr, 16.08. 20:00 7 2 29 270° W
Ortszeit Stärke Spitze Richtung
km/h Bft. km/h Grad Sektor
So, 18.08. 15:00 20 4 41 260° W
So, 18.08. 14:40 22 4 - 250° W
So, 18.08. 14:30 20 4 30 240° SW
So, 18.08. 14:20 20 4 - 240° SW
So, 18.08. 14:10 19 3 - 240° SW
So, 18.08. 14:00 18 3 32 260° W
So, 18.08. 13:50 18 3 - 260° W
So, 18.08. 13:30 18 3 32 230° SW
So, 18.08. 13:00 22 4 47 200° S
So, 18.08. 12:30 22 4 47 220° SW
So, 18.08. 12:00 22 4 32 220° SW
Ortszeit Untergrenze Bedeckung Gattung
total tief tief mittel hoch
So, 18.08. 14:00 3600 m 6/8 6/8 - - -
So, 18.08. 8:00 - 0/8 0/8 - - -
So, 18.08. 2:00 3000 m 8/8 8/8 - - -
Sa, 17.08. 20:00 2100 m 8/8 7/8 - - -
Sa, 17.08. 14:00 2700 m 7/8 7/8 - - -
Sa, 17.08. 8:00 3600 m 8/8 8/8 - - -
Sa, 17.08. 2:00 6000 m 8/8 8/8 - - -
Fr, 16.08. 20:00 8400 m 7/8 0/8 - - -
Ortszeit Bedeckungsgrad in Achtel und Wolkenuntergrenze
So, 18.08. 15:00 2(2400m) 4(3600m)
So, 18.08. 14:40 2(2400m) 5(3600m)
So, 18.08. 14:30 1(2400m) 3(3600m)
So, 18.08. 14:20 1(2400m) 3(3600m)
So, 18.08. 14:10 1(3600m)
So, 18.08. 14:00 6(3600m)
So, 18.08. 13:50 6(3600m)
So, 18.08. 13:30 2(3600m)
So, 18.08. 13:00 keine Wolken
So, 18.08. 12:30 keine Wolken
So, 18.08. 12:00 keine Wolken
Ortszeit Luftdruck NN (hPa) Tendenz (hPa in 3 Std.)
So, 18.08. 14:00 1008 - 1,0
So, 18.08. 8:00 1010 - 0,9
So, 18.08. 2:00 1012 - 0,1
Sa, 17.08. 20:00 1012 - 0,3
Sa, 17.08. 14:00 1014 - 0,6
Sa, 17.08. 8:00 1014 - 0,3
Sa, 17.08. 2:00 1015 - 0,6
Fr, 16.08. 20:00 1015 - 1,3
Ortszeit Luftdruck NN (hPa) Tendenz (hPa in 3 Std.)
So, 18.08. 15:00 1008 - 0,3
So, 18.08. 14:40 1008 keine Meldung
So, 18.08. 14:30 1008 - 0,5
So, 18.08. 14:20 1008 keine Meldung
So, 18.08. 14:10 1008 keine Meldung
So, 18.08. 14:00 1008 - 1,0
So, 18.08. 13:50 1008 keine Meldung
So, 18.08. 13:30 1008 - 0,8
So, 18.08. 13:00 1008 - 0,6
So, 18.08. 12:30 1009 - 0,2
So, 18.08. 12:00 1009 - 0,4
Ortszeit Schneehöhe (cm)
So, 18.08. 14:00 -
So, 18.08. 8:00 -
So, 18.08. 2:00 -
Sa, 17.08. 20:00 -
Sa, 17.08. 14:00 -
Sa, 17.08. 8:00 -
Sa, 17.08. 2:00 -
Fr, 16.08. 20:00 -
Ortszeit Schneehöhe (cm)
So, 18.08. 15:00 -
So, 18.08. 14:40 -
So, 18.08. 14:30 -
So, 18.08. 14:20 -
So, 18.08. 14:10 -
So, 18.08. 14:00 -
So, 18.08. 13:50 -
So, 18.08. 13:30 -
So, 18.08. 13:00 -
So, 18.08. 12:30 -
So, 18.08. 12:00 -
Link zu dieser Seite / Seite empfehlen

Das Wetter in ...